createdAt,value
2016-11-30T00:00:16.544Z,12
2016-11-30T00:01:27.029Z,12
2016-11-30T00:02:37.755Z,12
2016-11-30T00:03:48.279Z,12
2016-11-30T00:04:59.309Z,12
2016-11-30T00:06:09.831Z,12
2016-11-30T00:07:34.883Z,12
2016-11-30T00:08:45.448Z,12
2016-11-30T00:09:55.971Z,12
2016-11-30T00:11:06.502Z,12
2016-11-30T00:12:17.034Z,12
2016-11-30T00:13:27.556Z,8
2016-11-30T00:14:38.081Z,12
2016-11-30T00:15:48.636Z,12
2016-11-30T00:16:59.157Z,16
2016-11-30T00:18:09.683Z,12
2016-11-30T00:19:34.737Z,12
2016-11-30T00:20:45.270Z,12
2016-11-30T00:21:55.792Z,12
2016-11-30T00:23:06.351Z,12
2016-11-30T00:24:16.873Z,16
2016-11-30T00:26:52.444Z,16
2016-11-30T00:28:02.970Z,8
2016-11-30T00:29:13.525Z,16
2016-11-30T00:30:24.148Z,12
2016-11-30T00:31:34.673Z,12
2016-11-30T00:32:59.723Z,12
2016-11-30T00:34:10.174Z,12
2016-11-30T00:35:20.676Z,12
2016-11-30T00:36:31.082Z,12
2016-11-30T00:37:41.483Z,12
2016-11-30T00:38:51.894Z,12
2016-11-30T00:40:02.299Z,8
2016-11-30T00:41:12.902Z,16
2016-11-30T00:42:23.306Z,12
2016-11-30T00:43:33.717Z,12
2016-11-30T00:44:44.121Z,16
2016-11-30T00:45:54.530Z,8
2016-11-30T00:47:05.133Z,16
2016-11-30T00:48:15.540Z,16
2016-11-30T00:49:25.943Z,12
2016-11-30T00:50:36.841Z,12
2016-11-30T00:51:47.245Z,12
2016-11-30T00:52:57.653Z,12
2016-11-30T00:54:08.058Z,12
2016-11-30T00:55:18.471Z,12
2016-11-30T00:56:28.874Z,12
2016-11-30T00:57:39.279Z,12
2016-11-30T00:59:04.436Z,12
2016-11-30T01:00:14.840Z,16
2016-11-30T01:01:25.241Z,12
2016-11-30T01:02:35.643Z,8
2016-11-30T01:03:46.056Z,16
2016-11-30T01:04:56.461Z,12
2016-11-30T01:06:06.873Z,16
2016-11-30T01:07:17.284Z,12
2016-11-30T01:08:27.781Z,12
2016-11-30T01:09:38.407Z,12
2016-11-30T01:10:48.930Z,16
2016-11-30T01:11:59.452Z,12
2016-11-30T01:13:09.976Z,12
2016-11-30T01:14:20.503Z,12
2016-11-30T01:15:31.229Z,16
2016-11-30T01:16:41.789Z,12
2016-11-30T01:17:52.314Z,12
2016-11-30T01:19:02.843Z,16
2016-11-30T01:20:13.366Z,16
2016-11-30T01:21:23.990Z,12
2016-11-30T01:22:34.511Z,12
2016-11-30T01:23:45.043Z,16
2016-11-30T01:24:55.569Z,12
2016-11-30T01:26:06.096Z,12
2016-11-30T01:27:16.620Z,12
2016-11-30T01:28:27.145Z,12
2016-11-30T01:29:37.666Z,12
2016-11-30T01:30:48.188Z,12
2016-11-30T01:32:13.239Z,12
2016-11-30T01:33:23.770Z,12
2016-11-30T01:34:34.296Z,12
2016-11-30T01:35:44.821Z,12
2016-11-30T01:36:55.343Z,8
2016-11-30T01:38:05.971Z,12
2016-11-30T01:39:31.041Z,12
2016-11-30T01:40:41.569Z,12
2016-11-30T01:41:52.087Z,12
2016-11-30T01:43:17.143Z,12
2016-11-30T01:44:27.669Z,12
2016-11-30T01:45:38.198Z,12
2016-11-30T01:46:48.719Z,12
2016-11-30T01:47:59.247Z,12
2016-11-30T01:49:09.971Z,12
2016-11-30T01:50:20.497Z,12
2016-11-30T01:51:31.020Z,12
2016-11-30T01:52:41.546Z,12
2016-11-30T01:53:52.069Z,12
2016-11-30T01:55:02.794Z,12
2016-11-30T01:56:13.317Z,16
2016-11-30T01:57:23.858Z,12
2016-11-30T01:58:34.389Z,12
2016-11-30T01:59:44.914Z,12
2016-11-30T02:00:55.435Z,12
2016-11-30T02:02:05.963Z,4
2016-11-30T02:03:16.984Z,16
2016-11-30T02:04:27.509Z,12
2016-11-30T02:05:38.035Z,12
2016-11-30T02:06:48.782Z,12
2016-11-30T02:07:59.302Z,12
2016-11-30T02:09:09.841Z,12
2016-11-30T02:10:20.366Z,12
2016-11-30T02:11:45.617Z,12
2016-11-30T02:13:10.667Z,12
2016-11-30T02:14:21.109Z,12
2016-11-30T02:15:31.519Z,12
2016-11-30T02:16:41.923Z,12
2016-11-30T02:17:52.336Z,12
2016-11-30T02:19:02.739Z,12
2016-11-30T02:20:13.146Z,12
2016-11-30T02:21:24.033Z,12
2016-11-30T02:22:34.443Z,12
2016-11-30T02:23:44.853Z,12
2016-11-30T02:24:55.260Z,12
2016-11-30T02:26:05.667Z,16
2016-11-30T02:27:16.083Z,12
2016-11-30T02:28:41.039Z,12
2016-11-30T02:29:51.443Z,12
2016-11-30T02:31:01.853Z,12
2016-11-30T02:32:12.269Z,12
2016-11-30T02:33:22.672Z,12
2016-11-30T02:34:33.078Z,12
2016-11-30T02:35:43.481Z,12
2016-11-30T02:36:53.891Z,12
2016-11-30T02:38:04.775Z,12
2016-11-30T02:39:15.182Z,12
2016-11-30T02:40:25.815Z,12
2016-11-30T02:41:50.778Z,12
2016-11-30T02:43:01.191Z,12
2016-11-30T02:44:11.607Z,12
2016-11-30T02:45:22.005Z,12
2016-11-30T02:46:32.410Z,12
2016-11-30T02:47:42.817Z,12
2016-11-30T02:48:53.220Z,12
2016-11-30T02:50:03.632Z,12
2016-11-30T02:51:14.137Z,12
2016-11-30T02:52:24.542Z,8
2016-11-30T02:53:34.950Z,12
2016-11-30T02:54:45.357Z,8
2016-11-30T02:55:55.761Z,12
2016-11-30T02:57:06.165Z,12
2016-11-30T02:58:16.566Z,12
2016-11-30T02:59:26.995Z,8
2016-11-30T03:00:37.400Z,12
2016-11-30T03:01:47.805Z,12
2016-11-30T03:02:58.216Z,12
2016-11-30T03:04:08.658Z,12
2016-11-30T03:05:19.066Z,12
2016-11-30T03:06:29.468Z,8
2016-11-30T03:07:39.874Z,12
2016-11-30T03:08:50.484Z,12
2016-11-30T03:10:00.890Z,12
2016-11-30T03:11:11.298Z,12
2016-11-30T03:12:21.701Z,4
2016-11-30T03:13:32.108Z,12
2016-11-30T03:14:42.617Z,12
2016-11-30T03:15:53.015Z,12
2016-11-30T03:17:03.424Z,12
2016-11-30T03:18:13.829Z,12
2016-11-30T03:19:24.235Z,8
2016-11-30T03:20:34.741Z,12
2016-11-30T03:21:45.147Z,12
2016-11-30T03:22:55.554Z,12
2016-11-30T03:24:05.961Z,4
2016-11-30T03:25:16.371Z,12
2016-11-30T03:26:41.325Z,12
2016-11-30T03:27:51.730Z,12
2016-11-30T03:29:02.141Z,12
2016-11-30T03:30:12.573Z,12
2016-11-30T03:31:23.075Z,12
2016-11-30T03:32:33.478Z,12
2016-11-30T03:33:43.886Z,12
2016-11-30T03:34:54.287Z,12
2016-11-30T03:36:04.696Z,12
2016-11-30T03:37:15.100Z,12
2016-11-30T03:38:25.527Z,12
2016-11-30T03:39:35.929Z,12
2016-11-30T03:40:46.338Z,12
2016-11-30T03:41:56.740Z,12
2016-11-30T03:43:07.346Z,12
2016-11-30T03:44:17.750Z,12
2016-11-30T03:45:28.156Z,12
2016-11-30T03:46:38.559Z,8
2016-11-30T03:47:48.964Z,12
2016-11-30T03:48:59.376Z,16
2016-11-30T03:50:09.857Z,12
2016-11-30T03:51:20.295Z,12
2016-11-30T03:52:30.698Z,12
2016-11-30T03:53:41.104Z,12
2016-11-30T03:55:06.264Z,12
2016-11-30T03:56:16.666Z,12
2016-11-30T03:57:41.631Z,12
2016-11-30T03:58:52.548Z,12
2016-11-30T04:00:03.053Z,12
2016-11-30T04:01:13.456Z,4
2016-11-30T04:02:38.407Z,12
2016-11-30T04:03:48.811Z,12
2016-11-30T04:04:59.219Z,12
2016-11-30T04:06:24.174Z,12
2016-11-30T04:07:34.576Z,12
2016-11-30T04:08:44.980Z,12
2016-11-30T04:09:55.413Z,12
2016-11-30T04:11:05.849Z,12
2016-11-30T04:12:16.253Z,8
2016-11-30T04:13:26.658Z,4
2016-11-30T04:14:37.069Z,16
2016-11-30T04:15:47.963Z,12
2016-11-30T04:16:58.568Z,12
2016-11-30T04:18:08.973Z,8
2016-11-30T04:19:19.378Z,12
2016-11-30T04:20:29.782Z,8
2016-11-30T04:21:40.188Z,12
2016-11-30T04:23:05.142Z,12
2016-11-30T04:24:15.550Z,12
2016-11-30T04:25:25.951Z,12
2016-11-30T04:26:36.360Z,4
2016-11-30T04:27:46.765Z,4
2016-11-30T04:28:57.168Z,12
2016-11-30T04:30:07.572Z,16
2016-11-30T04:31:17.976Z,16
2016-11-30T04:32:28.382Z,12
2016-11-30T04:33:38.992Z,12
2016-11-30T04:34:49.396Z,8
2016-11-30T04:35:59.803Z,12
2016-11-30T04:37:10.211Z,12
2016-11-30T04:38:20.609Z,12
2016-11-30T04:39:31.213Z,12
2016-11-30T04:40:41.620Z,12
2016-11-30T04:41:52.024Z,12
2016-11-30T04:43:02.426Z,12
2016-11-30T04:44:12.829Z,12
2016-11-30T04:45:23.431Z,12
2016-11-30T04:46:33.835Z,12
2016-11-30T04:47:44.233Z,12
2016-11-30T04:48:54.642Z,12
2016-11-30T04:50:05.048Z,12
2016-11-30T04:51:15.454Z,12
2016-11-30T04:52:25.854Z,4
2016-11-30T04:53:36.255Z,12
2016-11-30T04:54:46.661Z,12
2016-11-30T04:55:57.069Z,12
2016-11-30T04:57:07.475Z,12
2016-11-30T04:58:17.882Z,12
2016-11-30T04:59:28.288Z,12
2016-11-30T05:00:38.688Z,8
2016-11-30T05:02:03.701Z,4
2016-11-30T05:03:14.224Z,12
2016-11-30T05:04:24.744Z,12
2016-11-30T05:05:36.259Z,12
2016-11-30T05:06:46.785Z,12
2016-11-30T05:07:57.513Z,12
2016-11-30T05:09:08.550Z,12
2016-11-30T05:10:19.074Z,4
2016-11-30T05:11:29.594Z,12
2016-11-30T05:12:40.148Z,12
2016-11-30T05:13:50.872Z,4
2016-11-30T05:15:01.394Z,12
2016-11-30T05:16:11.918Z,12
2016-11-30T05:17:36.971Z,12
2016-11-30T05:18:47.700Z,12
2016-11-30T05:19:58.221Z,12
2016-11-30T05:21:08.749Z,12
2016-11-30T05:22:19.273Z,12
2016-11-30T05:23:29.794Z,8
2016-11-30T05:24:40.312Z,12
2016-11-30T05:25:51.332Z,12
2016-11-30T05:27:01.857Z,12
2016-11-30T05:28:12.378Z,12
2016-11-30T05:29:22.901Z,12
2016-11-30T05:31:58.471Z,12
2016-11-30T05:33:09.000Z,12
2016-11-30T05:34:34.545Z,4
2016-11-30T05:35:45.062Z,12
2016-11-30T05:36:55.585Z,12
2016-11-30T05:38:06.109Z,12
2016-11-30T05:39:16.631Z,12
2016-11-30T05:40:27.156Z,12
2016-11-30T05:41:37.879Z,12
2016-11-30T05:42:48.403Z,4
2016-11-30T05:43:58.939Z,12
2016-11-30T05:45:09.467Z,12
2016-11-30T05:46:19.989Z,12
2016-11-30T05:48:56.360Z,12
2016-11-30T05:50:06.890Z,12
2016-11-30T05:51:17.415Z,4
2016-11-30T05:52:28.140Z,12
2016-11-30T05:53:38.661Z,12
2016-11-30T05:54:49.184Z,12
2016-11-30T05:55:59.704Z,12
2016-11-30T05:57:10.241Z,12
2016-11-30T05:58:20.765Z,12
2016-11-30T05:59:31.289Z,4
2016-11-30T06:00:41.807Z,12
2016-11-30T06:01:52.339Z,12
2016-11-30T06:03:02.861Z,12
2016-11-30T06:04:13.590Z,12
2016-11-30T06:05:24.110Z,12
2016-11-30T06:06:34.630Z,12
2016-11-30T06:07:45.153Z,12
2016-11-30T06:08:55.701Z,12
2016-11-30T06:10:06.422Z,4
2016-11-30T06:11:16.948Z,12
2016-11-30T06:12:27.468Z,12
2016-11-30T06:13:37.992Z,12
2016-11-30T06:14:48.517Z,12
2016-11-30T06:15:59.040Z,12
2016-11-30T06:17:09.568Z,12
2016-11-30T06:18:20.092Z,12
2016-11-30T06:19:30.615Z,12
2016-11-30T06:20:41.138Z,12
2016-11-30T06:22:06.384Z,12
2016-11-30T06:23:16.909Z,12
2016-11-30T06:24:27.433Z,12
2016-11-30T06:25:37.955Z,12
2016-11-30T06:26:48.676Z,12
2016-11-30T06:27:59.199Z,4
2016-11-30T06:29:09.724Z,12
2016-11-30T06:30:20.243Z,12
2016-11-30T06:31:30.770Z,12
2016-11-30T06:32:41.494Z,12
2016-11-30T06:33:52.021Z,12
2016-11-30T06:35:02.548Z,4
2016-11-30T06:36:13.079Z,12
2016-11-30T06:37:23.600Z,12
2016-11-30T06:38:34.367Z,12
2016-11-30T06:39:44.890Z,12
2016-11-30T06:40:55.412Z,12
2016-11-30T06:42:05.935Z,4
2016-11-30T06:43:16.457Z,12
2016-11-30T06:44:27.181Z,12
2016-11-30T06:45:37.705Z,12
2016-11-30T06:46:48.225Z,12
2016-11-30T06:47:58.756Z,12
2016-11-30T06:49:09.304Z,4
2016-11-30T06:50:20.032Z,12
2016-11-30T06:51:30.562Z,12
2016-11-30T06:52:41.086Z,12
2016-11-30T06:53:51.608Z,12
2016-11-30T06:55:02.137Z,12
2016-11-30T06:56:12.689Z,12
2016-11-30T06:57:23.208Z,12
2016-11-30T06:58:33.732Z,12
2016-11-30T06:59:44.254Z,12
2016-11-30T07:00:54.809Z,12
2016-11-30T07:02:05.333Z,12
2016-11-30T07:03:30.382Z,12
2016-11-30T07:04:40.903Z,12
2016-11-30T07:06:05.953Z,12
2016-11-30T07:07:16.475Z,12
2016-11-30T07:08:41.521Z,12
2016-11-30T07:10:06.600Z,4
2016-11-30T07:11:17.123Z,12
2016-11-30T07:12:27.845Z,12
2016-11-30T07:13:38.366Z,4
2016-11-30T07:14:48.887Z,12
2016-11-30T07:15:59.408Z,12
2016-11-30T07:17:09.931Z,12
2016-11-30T07:18:20.564Z,12
2016-11-30T07:19:30.967Z,12
2016-11-30T07:20:41.371Z,12
2016-11-30T07:21:51.782Z,4
2016-11-30T07:23:02.665Z,12
2016-11-30T07:24:13.266Z,12
2016-11-30T07:25:23.670Z,12
2016-11-30T07:26:34.102Z,8
2016-11-30T07:27:44.506Z,12
2016-11-30T07:28:54.907Z,12
2016-11-30T07:30:05.510Z,12
2016-11-30T07:31:15.912Z,12
2016-11-30T07:32:26.316Z,4
2016-11-30T07:33:36.722Z,12
2016-11-30T07:34:47.125Z,12
2016-11-30T07:35:57.526Z,12
2016-11-30T07:37:07.934Z,12
2016-11-30T07:38:18.336Z,4
2016-11-30T07:39:28.748Z,12
2016-11-30T07:40:39.148Z,12
2016-11-30T07:41:49.751Z,12
2016-11-30T07:43:00.155Z,12
2016-11-30T07:44:10.559Z,12
2016-11-30T07:45:20.962Z,12
2016-11-30T07:46:31.364Z,12
2016-11-30T07:47:41.973Z,12
2016-11-30T07:48:52.377Z,12
2016-11-30T07:50:02.778Z,12
2016-11-30T07:51:13.268Z,12
2016-11-30T07:52:23.791Z,4
2016-11-30T07:53:34.515Z,12
2016-11-30T07:54:45.036Z,12
2016-11-30T07:55:55.566Z,12
2016-11-30T07:57:06.088Z,4
2016-11-30T07:58:16.613Z,12
2016-11-30T07:59:27.141Z,12
2016-11-30T08:00:37.661Z,12
2016-11-30T08:01:48.188Z,8
2016-11-30T08:02:58.711Z,16
2016-11-30T08:04:09.242Z,16
2016-11-30T08:05:19.961Z,16
2016-11-30T08:06:30.481Z,16
2016-11-30T08:07:41.033Z,12
2016-11-30T08:08:51.558Z,12
2016-11-30T08:10:02.083Z,8
2016-11-30T08:11:12.629Z,16
2016-11-30T08:12:23.151Z,16
2016-11-30T08:13:33.670Z,16
2016-11-30T08:14:44.196Z,16
2016-11-30T08:15:54.716Z,12
2016-11-30T08:17:05.442Z,24
2016-11-30T08:18:30.495Z,24
2016-11-30T08:19:41.014Z,24
2016-11-30T08:20:51.539Z,28
2016-11-30T08:22:02.263Z,20
2016-11-30T08:23:12.803Z,20
2016-11-30T08:24:23.354Z,24
2016-11-30T08:25:33.873Z,24
2016-11-30T08:26:44.404Z,24
2016-11-30T08:27:55.128Z,28
2016-11-30T08:30:30.732Z,32
2016-11-30T08:31:41.253Z,36
2016-11-30T08:32:51.974Z,40
2016-11-30T08:34:02.506Z,44
2016-11-30T08:35:13.027Z,48
2016-11-30T08:36:23.551Z,44
2016-11-30T08:37:34.075Z,48
2016-11-30T08:38:44.796Z,52
2016-11-30T08:39:55.321Z,56
2016-11-30T08:41:05.843Z,52
2016-11-30T08:42:16.368Z,64
2016-11-30T08:43:26.886Z,68
2016-11-30T08:44:37.430Z,84
2016-11-30T08:45:47.958Z,80
2016-11-30T08:46:58.485Z,88
2016-11-30T08:48:09.009Z,104
2016-11-30T08:49:34.255Z,84
2016-11-30T08:50:44.773Z,100
2016-11-30T08:51:55.296Z,108
2016-11-30T08:53:05.821Z,88
2016-11-30T08:54:16.844Z,104
2016-11-30T08:55:27.569Z,112
2016-11-30T08:56:38.025Z,136
2016-11-30T08:57:48.437Z,144
2016-11-30T08:58:58.837Z,152
2016-11-30T09:00:09.238Z,140
2016-11-30T09:01:20.326Z,132
2016-11-30T09:02:30.732Z,108
2016-11-30T09:03:41.134Z,128
2016-11-30T09:04:51.538Z,144
2016-11-30T09:06:01.942Z,168
2016-11-30T09:07:12.358Z,208
2016-11-30T09:08:22.760Z,196
2016-11-30T09:09:33.177Z,200
2016-11-30T09:11:12.679Z,212
2016-11-30T09:12:23.284Z,216
2016-11-30T09:13:33.695Z,236
2016-11-30T09:14:44.102Z,224
2016-11-30T09:15:54.506Z,220
2016-11-30T09:17:04.909Z,220
2016-11-30T09:18:15.510Z,236
2016-11-30T09:19:25.918Z,228
2016-11-30T09:20:36.326Z,232
2016-11-30T09:21:46.735Z,236
2016-11-30T09:22:57.177Z,236
2016-11-30T09:24:07.788Z,228
2016-11-30T09:25:18.227Z,248
2016-11-30T09:26:28.634Z,272
2016-11-30T09:27:39.075Z,268
2016-11-30T09:28:49.594Z,252
2016-11-30T09:30:00.117Z,228
2016-11-30T09:32:35.772Z,292
2016-11-30T09:33:46.292Z,300
2016-11-30T09:34:56.815Z,344
2016-11-30T09:36:07.367Z,344
2016-11-30T09:37:17.886Z,332
2016-11-30T09:38:28.418Z,312
2016-11-30T09:39:38.941Z,320
2016-11-30T09:40:49.666Z,336
2016-11-30T09:42:14.712Z,344
2016-11-30T09:43:25.268Z,376
2016-11-30T09:44:50.317Z,352
2016-11-30T09:46:01.045Z,392
2016-11-30T09:47:11.568Z,380
2016-11-30T09:48:22.094Z,320
2016-11-30T09:49:32.621Z,308
2016-11-30T09:50:43.154Z,296
2016-11-30T09:51:53.875Z,356
2016-11-30T09:53:04.431Z,356
2016-11-30T09:54:14.953Z,356
2016-11-30T09:55:25.474Z,356
2016-11-30T09:56:35.996Z,324
2016-11-30T09:57:46.518Z,356
2016-11-30T09:58:57.045Z,392
2016-11-30T10:00:07.603Z,372
2016-11-30T10:01:18.131Z,348
2016-11-30T10:02:28.661Z,420
2016-11-30T10:03:39.694Z,452
2016-11-30T10:04:50.220Z,464
2016-11-30T10:06:00.745Z,516
2016-11-30T10:07:11.270Z,480
2016-11-30T10:08:21.787Z,432
2016-11-30T10:09:32.313Z,444
2016-11-30T10:10:42.835Z,420
2016-11-30T10:11:53.356Z,428
2016-11-30T10:13:03.875Z,388
2016-11-30T10:14:14.405Z,356
2016-11-30T10:15:39.654Z,372
2016-11-30T10:16:50.179Z,348
2016-11-30T10:18:00.714Z,324
2016-11-30T10:19:11.238Z,348
2016-11-30T10:20:21.761Z,340
2016-11-30T10:21:32.284Z,296
2016-11-30T10:22:42.805Z,324
2016-11-30T10:23:53.325Z,320
2016-11-30T10:25:03.850Z,284
2016-11-30T10:26:14.585Z,232
2016-11-30T10:27:25.110Z,212
2016-11-30T10:28:35.633Z,204
2016-11-30T10:29:46.155Z,200
2016-11-30T10:30:56.675Z,248
2016-11-30T10:32:07.398Z,244
2016-11-30T10:33:32.447Z,272
2016-11-30T10:34:57.496Z,272
2016-11-30T10:36:08.019Z,244
2016-11-30T10:37:18.552Z,268
2016-11-30T10:38:43.636Z,308
2016-11-30T10:39:54.161Z,324
2016-11-30T10:41:04.689Z,400
2016-11-30T10:42:15.311Z,332
2016-11-30T10:43:25.839Z,364
2016-11-30T10:44:36.359Z,332
2016-11-30T10:46:01.410Z,324
2016-11-30T10:47:11.950Z,424
2016-11-30T10:48:22.972Z,420
2016-11-30T10:49:33.498Z,424
2016-11-30T10:50:44.034Z,432
2016-11-30T10:51:54.557Z,388
2016-11-30T10:53:05.081Z,384
2016-11-30T10:54:15.602Z,348
2016-11-30T10:55:26.165Z,336
2016-11-30T10:56:36.683Z,336
2016-11-30T10:57:47.218Z,388
2016-11-30T10:58:57.736Z,464
2016-11-30T11:00:08.266Z,476
2016-11-30T11:01:18.793Z,612
2016-11-30T11:02:29.317Z,664
2016-11-30T11:03:39.841Z,644
2016-11-30T11:04:50.363Z,580
2016-11-30T11:06:00.882Z,548
2016-11-30T11:07:11.407Z,672
2016-11-30T11:09:46.904Z,940
2016-11-30T11:10:57.307Z,1068
2016-11-30T11:12:07.718Z,1016
2016-11-30T11:13:32.668Z,1028
2016-11-30T11:14:43.073Z,944
2016-11-30T11:15:53.968Z,1064
2016-11-30T11:17:04.371Z,1028
2016-11-30T11:18:14.788Z,1092
2016-11-30T11:19:39.738Z,1100
2016-11-30T11:20:50.143Z,1188
2016-11-30T11:22:00.554Z,1284
2016-11-30T11:23:10.984Z,1288
2016-11-30T11:24:21.410Z,1208
2016-11-30T11:25:46.359Z,1348
2016-11-30T11:26:56.765Z,1440
2016-11-30T11:28:07.166Z,1324
2016-11-30T11:29:17.568Z,1048
2016-11-30T11:30:27.970Z,996
2016-11-30T11:31:38.371Z,940
2016-11-30T11:32:48.776Z,1040
2016-11-30T11:33:59.180Z,888
2016-11-30T11:35:09.586Z,796
2016-11-30T11:36:19.990Z,876
2016-11-30T11:38:55.549Z,944
2016-11-30T11:40:05.950Z,636
2016-11-30T11:41:30.904Z,876
2016-11-30T11:42:41.657Z,772
2016-11-30T11:43:52.060Z,552
2016-11-30T11:45:02.465Z,472
2016-11-30T11:46:12.874Z,600
2016-11-30T11:49:02.783Z,604
2016-11-30T11:50:13.188Z,676
2016-11-30T11:51:23.591Z,768
2016-11-30T11:52:33.990Z,904
2016-11-30T11:53:44.404Z,960
2016-11-30T11:55:09.356Z,1096
2016-11-30T11:56:19.758Z,1536
2016-11-30T11:57:30.159Z,1584
2016-11-30T11:58:40.667Z,1572
2016-11-30T11:59:51.068Z,1724
2016-11-30T12:01:01.473Z,1772
2016-11-30T12:02:11.874Z,1972
2016-11-30T12:04:47.236Z,1768
2016-11-30T12:05:57.642Z,1504
2016-11-30T12:07:08.049Z,1372
2016-11-30T12:08:33.019Z,1160
2016-11-30T12:09:43.424Z,880
2016-11-30T12:10:53.831Z,808
2016-11-30T12:12:04.239Z,800
2016-11-30T12:13:14.646Z,704
2016-11-30T12:16:07.299Z,760
2016-11-30T12:17:19.509Z,680
2016-11-30T12:18:30.041Z,556
2016-11-30T12:19:42.005Z,576
2016-11-30T12:23:03.995Z,716
2016-11-30T12:24:14.532Z,816
2016-11-30T12:25:39.619Z,916
2016-11-30T12:28:16.420Z,884
2016-11-30T12:29:56.018Z,800
2016-11-30T12:31:07.256Z,892
2016-11-30T12:32:18.800Z,832
2016-11-30T12:33:43.864Z,888
2016-11-30T12:35:08.916Z,808
2016-11-30T12:36:21.035Z,780
2016-11-30T12:37:32.299Z,672
2016-11-30T12:38:42.824Z,724
2016-11-30T12:39:53.352Z,680
2016-11-30T12:41:03.872Z,624
2016-11-30T12:42:14.892Z,676
2016-11-30T12:43:25.411Z,712
2016-11-30T12:44:35.933Z,684
2016-11-30T12:45:46.485Z,704
2016-11-30T12:46:57.010Z,700
2016-11-30T12:48:08.034Z,652
2016-11-30T12:49:18.568Z,608
2016-11-30T12:50:43.640Z,692
2016-11-30T12:52:09.191Z,680
2016-11-30T12:53:19.915Z,668
2016-11-30T12:54:30.436Z,656
2016-11-30T12:55:40.993Z,772
2016-11-30T12:56:51.519Z,844
2016-11-30T12:58:02.044Z,988
2016-11-30T12:59:12.575Z,904
2016-11-30T13:00:23.095Z,880
2016-11-30T13:01:33.622Z,980
2016-11-30T13:02:44.149Z,1088
2016-11-30T13:03:54.671Z,888
2016-11-30T13:05:05.190Z,940
2016-11-30T13:06:30.237Z,964
2016-11-30T13:07:40.760Z,932
2016-11-30T13:08:51.291Z,772
2016-11-30T13:10:01.814Z,1000
2016-11-30T13:11:12.840Z,1032
2016-11-30T13:12:23.365Z,1012
2016-11-30T13:13:33.886Z,1248
2016-11-30T13:14:44.409Z,980
2016-11-30T13:15:54.931Z,1016
2016-11-30T13:17:05.460Z,1088
2016-11-30T13:18:15.981Z,1016
2016-11-30T13:20:10.083Z,1108
2016-11-30T13:21:20.814Z,1008
2016-11-30T13:22:31.337Z,1000
2016-11-30T13:23:41.861Z,1240
2016-11-30T13:25:06.826Z,932
2016-11-30T13:26:17.232Z,1152
2016-11-30T13:27:27.636Z,1124
2016-11-30T13:28:38.039Z,1044
2016-11-30T13:30:02.991Z,908
2016-11-30T13:31:13.389Z,792
2016-11-30T13:32:23.997Z,728
2016-11-30T13:33:34.487Z,748
2016-11-30T13:35:00.031Z,972
2016-11-30T13:36:10.560Z,740
2016-11-30T13:37:21.285Z,572
2016-11-30T13:38:46.334Z,600
2016-11-30T13:40:11.384Z,568
2016-11-30T13:41:21.909Z,760
2016-11-30T13:42:32.430Z,804
2016-11-30T13:43:42.958Z,964
2016-11-30T13:44:53.478Z,1084
2016-11-30T13:46:03.999Z,1180
2016-11-30T13:47:14.523Z,1236
2016-11-30T13:48:40.106Z,1196
2016-11-30T13:49:50.691Z,1432
2016-11-30T13:51:01.260Z,1204
2016-11-30T13:52:26.317Z,1172
2016-11-30T13:53:36.845Z,1380
2016-11-30T13:54:47.365Z,2060
2016-11-30T13:55:57.890Z,2692
2016-11-30T13:57:08.419Z,2508
2016-11-30T13:58:19.437Z,2088
2016-11-30T13:59:29.958Z,2064
2016-11-30T14:00:55.008Z,2004
2016-11-30T14:02:05.574Z,1688
2016-11-30T14:03:16.098Z,1808
2016-11-30T14:04:26.818Z,1648
2016-11-30T14:05:37.340Z,1636
2016-11-30T14:06:47.866Z,1452
2016-11-30T14:07:58.389Z,1548
2016-11-30T14:09:08.916Z,1256
2016-11-30T14:10:19.641Z,1272
2016-11-30T14:11:30.166Z,1352
2016-11-30T14:12:55.218Z,1240
2016-11-30T14:14:05.741Z,1028
2016-11-30T14:15:30.789Z,900
2016-11-30T14:16:41.320Z,892
2016-11-30T14:17:51.872Z,904
2016-11-30T14:20:27.444Z,1060
2016-11-30T14:21:37.968Z,1188
2016-11-30T14:22:48.499Z,1128
2016-11-30T14:23:59.024Z,1316
2016-11-30T14:25:09.561Z,1324
2016-11-30T14:26:20.080Z,1300
2016-11-30T14:27:45.132Z,1312
2016-11-30T14:28:55.656Z,1120
2016-11-30T14:30:06.184Z,1004
2016-11-30T14:31:16.909Z,1252
2016-11-30T14:32:27.433Z,1308
2016-11-30T14:33:37.962Z,1432
2016-11-30T14:35:03.060Z,1176
2016-11-30T14:36:14.117Z,1100
2016-11-30T14:37:24.646Z,756
2016-11-30T14:38:35.167Z,808
2016-11-30T14:39:45.688Z,856
2016-11-30T14:42:21.262Z,1116
2016-11-30T14:43:31.790Z,1116
2016-11-30T14:44:42.312Z,1180
2016-11-30T14:45:53.331Z,1192
2016-11-30T14:47:04.356Z,1108
2016-11-30T14:48:15.075Z,1248
2016-11-30T14:49:25.611Z,1044
2016-11-30T14:50:36.134Z,692
2016-11-30T14:51:46.653Z,596
2016-11-30T14:53:11.703Z,544
2016-11-30T14:54:22.223Z,428
2016-11-30T14:55:32.747Z,452
2016-11-30T14:56:43.766Z,608
2016-11-30T14:57:54.298Z,616
2016-11-30T14:59:04.823Z,588
2016-11-30T15:00:15.347Z,548
2016-11-30T15:01:25.873Z,588
2016-11-30T15:02:36.392Z,708
2016-11-30T15:03:46.913Z,716
2016-11-30T15:04:57.432Z,744
2016-11-30T15:06:07.954Z,732
2016-11-30T15:07:18.472Z,596
2016-11-30T15:08:28.990Z,744
2016-11-30T15:09:39.519Z,804
2016-11-30T15:10:50.142Z,888
2016-11-30T15:12:00.662Z,860
2016-11-30T15:13:11.189Z,812
2016-11-30T15:14:21.712Z,880
2016-11-30T15:15:32.234Z,824
2016-11-30T15:16:57.481Z,808
2016-11-30T15:18:08.001Z,792
2016-11-30T15:19:18.527Z,832
2016-11-30T15:20:43.575Z,816
2016-11-30T15:21:54.602Z,980
2016-11-30T15:23:05.121Z,1052
2016-11-30T15:24:15.641Z,1176
2016-11-30T15:25:26.164Z,1304
2016-11-30T15:26:36.682Z,1116
2016-11-30T15:27:47.402Z,1188
2016-11-30T15:28:57.942Z,1160
2016-11-30T15:30:08.961Z,1120
2016-11-30T15:31:19.487Z,864
2016-11-30T15:32:44.541Z,968
2016-11-30T15:33:55.060Z,840
2016-11-30T15:35:05.580Z,796
2016-11-30T15:36:16.148Z,988
2016-11-30T15:37:26.669Z,1276
2016-11-30T15:38:37.191Z,1264
2016-11-30T15:39:47.716Z,1256
2016-11-30T15:40:58.757Z,1368
2016-11-30T15:42:09.285Z,1608
2016-11-30T15:43:20.305Z,1752
2016-11-30T15:44:30.862Z,1740
2016-11-30T15:45:41.387Z,1372
2016-11-30T15:46:51.910Z,1364
2016-11-30T15:48:02.432Z,1360
2016-11-30T15:49:13.450Z,1248
2016-11-30T15:50:24.180Z,1444
2016-11-30T15:51:34.697Z,1656
2016-11-30T15:52:45.222Z,1768
2016-11-30T15:53:55.744Z,1656
2016-11-30T15:55:06.262Z,1748
2016-11-30T15:56:31.308Z,2344
2016-11-30T15:57:41.825Z,2344
2016-11-30T15:58:52.360Z,2212
2016-11-30T16:00:02.932Z,2116
2016-11-30T16:01:13.657Z,2488
2016-11-30T16:02:24.182Z,2460
2016-11-30T16:03:34.701Z,2660
2016-11-30T16:04:59.752Z,1952
2016-11-30T16:06:10.281Z,1448
2016-11-30T16:07:21.011Z,1396
2016-11-30T16:08:31.528Z,1256
2016-11-30T16:09:42.048Z,1072
2016-11-30T16:10:52.569Z,1004
2016-11-30T16:12:03.293Z,1016
2016-11-30T16:13:13.844Z,908
2016-11-30T16:14:24.366Z,972
2016-11-30T16:17:02.898Z,932
2016-11-30T16:18:13.422Z,1024
2016-11-30T16:19:23.945Z,1080
2016-11-30T16:20:34.468Z,1024
2016-11-30T16:21:44.994Z,960
2016-11-30T16:22:55.518Z,736
2016-11-30T16:24:06.047Z,676
2016-11-30T16:25:16.575Z,692
2016-11-30T16:26:27.129Z,756
2016-11-30T16:27:37.657Z,1024
2016-11-30T16:28:48.282Z,1028
2016-11-30T16:29:58.801Z,828
2016-11-30T16:31:09.363Z,980
2016-11-30T16:32:19.888Z,1440
2016-11-30T16:33:30.410Z,1828
2016-11-30T16:34:41.129Z,1972
2016-11-30T16:35:51.645Z,1604
2016-11-30T16:37:02.169Z,1552
2016-11-30T16:38:12.695Z,1644
2016-11-30T16:39:23.219Z,2004
2016-11-30T16:40:48.468Z,2220
2016-11-30T16:41:59.029Z,2300
2016-11-30T16:43:09.551Z,1904
2016-11-30T16:44:20.077Z,1164
2016-11-30T16:45:30.605Z,784
2016-11-30T16:46:41.328Z,644
2016-11-30T16:47:51.876Z,612
2016-11-30T16:49:02.395Z,496
2016-11-30T16:50:12.914Z,540
2016-11-30T16:51:23.441Z,532
2016-11-30T16:52:48.490Z,644
2016-11-30T16:53:59.020Z,1020
2016-11-30T16:55:09.545Z,1464
2016-11-30T16:56:34.590Z,1276
2016-11-30T16:57:59.649Z,1600
2016-11-30T16:59:24.695Z,1268
2016-11-30T17:00:35.729Z,940
2016-11-30T17:01:46.252Z,1576
2016-11-30T17:02:56.772Z,1852
2016-11-30T17:04:07.292Z,2004
2016-11-30T17:05:17.815Z,1832